sensor_id;sensor_type;location;lat;lon;timestamp;temperature;humidity
17632;DHT22;8934;51.194;17.150;2023-06-14T00:01:18;8.00;99.90
17632;DHT22;8934;51.194;17.150;2023-06-14T00:04:08;8.00;99.90
17632;DHT22;8934;51.194;17.150;2023-06-14T00:06:57;7.90;99.90
17632;DHT22;8934;51.194;17.150;2023-06-14T00:09:45;7.90;99.90
17632;DHT22;8934;51.194;17.150;2023-06-14T00:12:32;7.80;99.90
17632;DHT22;8934;51.194;17.150;2023-06-14T00:15:20;7.80;99.90
17632;DHT22;8934;51.194;17.150;2023-06-14T00:18:09;7.80;99.90
17632;DHT22;8934;51.194;17.150;2023-06-14T00:20:58;7.70;99.90
17632;DHT22;8934;51.194;17.150;2023-06-14T00:23:45;7.70;99.90
17632;DHT22;8934;51.194;17.150;2023-06-14T00:26:33;7.70;99.90
17632;DHT22;8934;51.194;17.150;2023-06-14T00:29:20;7.60;99.90
17632;DHT22;8934;51.194;17.150;2023-06-14T00:32:08;7.60;99.90
17632;DHT22;8934;51.194;17.150;2023-06-14T00:34:57;7.50;99.90
17632;DHT22;8934;51.194;17.150;2023-06-14T00:37:45;7.50;99.90
17632;DHT22;8934;51.194;17.150;2023-06-14T00:40:33;7.50;99.90
17632;DHT22;8934;51.194;17.150;2023-06-14T00:43:21;7.50;99.90
17632;DHT22;8934;51.194;17.150;2023-06-14T00:46:08;7.50;99.90
17632;DHT22;8934;51.194;17.150;2023-06-14T00:48:56;7.50;99.90
17632;DHT22;8934;51.194;17.150;2023-06-14T00:51:47;7.50;99.90
17632;DHT22;8934;51.194;17.150;2023-06-14T00:54:35;7.50;99.90
17632;DHT22;8934;51.194;17.150;2023-06-14T00:57:23;7.60;99.90
17632;DHT22;8934;51.194;17.150;2023-06-14T01:00:11;7.60;99.90
17632;DHT22;8934;51.194;17.150;2023-06-14T01:02:59;7.60;99.90
17632;DHT22;8934;51.194;17.150;2023-06-14T01:05:48;7.60;99.90
17632;DHT22;8934;51.194;17.150;2023-06-14T01:08:43;7.60;99.90
17632;DHT22;8934;51.194;17.150;2023-06-14T01:11:44;7.60;99.90
17632;DHT22;8934;51.194;17.150;2023-06-14T01:14:35;7.60;99.90
17632;DHT22;8934;51.194;17.150;2023-06-14T01:17:24;7.50;99.90
17632;DHT22;8934;51.194;17.150;2023-06-14T01:20:15;7.50;99.90
17632;DHT22;8934;51.194;17.150;2023-06-14T01:23:05;7.50;99.90
17632;DHT22;8934;51.194;17.150;2023-06-14T01:25:52;7.50;99.90
17632;DHT22;8934;51.194;17.150;2023-06-14T01:28:41;7.50;99.90
17632;DHT22;8934;51.194;17.150;2023-06-14T01:31:30;7.50;99.90
17632;DHT22;8934;51.194;17.150;2023-06-14T01:34:27;7.50;99.90
17632;DHT22;8934;51.194;17.150;2023-06-14T01:37:16;7.50;99.90
17632;DHT22;8934;51.194;17.150;2023-06-14T01:40:07;7.40;99.90
17632;DHT22;8934;51.194;17.150;2023-06-14T01:42:57;7.40;99.90
17632;DHT22;8934;51.194;17.150;2023-06-14T01:45:47;7.30;99.90
17632;DHT22;8934;51.194;17.150;2023-06-14T01:48:37;7.30;99.90
17632;DHT22;8934;51.194;17.150;2023-06-14T01:51:24;7.30;99.90
17632;DHT22;8934;51.194;17.150;2023-06-14T01:54:12;7.40;99.90
17632;DHT22;8934;51.194;17.150;2023-06-14T01:57:01;7.40;99.90
17632;DHT22;8934;51.194;17.150;2023-06-14T01:59:48;7.40;99.90
17632;DHT22;8934;51.194;17.150;2023-06-14T02:02:37;7.40;99.90
17632;DHT22;8934;51.194;17.150;2023-06-14T02:05:24;7.40;99.90
17632;DHT22;8934;51.194;17.150;2023-06-14T02:08:13;7.50;99.90
17632;DHT22;8934;51.194;17.150;2023-06-14T02:11:00;7.60;99.90
17632;DHT22;8934;51.194;17.150;2023-06-14T02:13:49;7.60;99.90
17632;DHT22;8934;51.194;17.150;2023-06-14T02:16:37;7.60;99.90
17632;DHT22;8934;51.194;17.150;2023-06-14T02:19:26;7.60;99.90
17632;DHT22;8934;51.194;17.150;2023-06-14T02:22:15;7.60;99.90
17632;DHT22;8934;51.194;17.150;2023-06-14T02:25:04;7.70;99.90
17632;DHT22;8934;51.194;17.150;2023-06-14T02:27:52;7.70;99.90
17632;DHT22;8934;51.194;17.150;2023-06-14T02:30:41;7.60;99.90
17632;DHT22;8934;51.194;17.150;2023-06-14T02:33:29;7.60;99.90
17632;DHT22;8934;51.194;17.150;2023-06-14T02:36:16;7.50;99.90
17632;DHT22;8934;51.194;17.150;2023-06-14T02:39:04;7.50;99.90
17632;DHT22;8934;51.194;17.150;2023-06-14T02:41:51;7.40;99.90
17632;DHT22;8934;51.194;17.150;2023-06-14T02:44:39;7.40;99.90
17632;DHT22;8934;51.194;17.150;2023-06-14T02:47:28;7.40;99.90
17632;DHT22;8934;51.194;17.150;2023-06-14T02:50:16;7.40;99.90
17632;DHT22;8934;51.194;17.150;2023-06-14T02:53:04;7.40;99.90
17632;DHT22;8934;51.194;17.150;2023-06-14T02:55:53;7.40;99.90
17632;DHT22;8934;51.194;17.150;2023-06-14T02:58:41;7.60;99.90
17632;DHT22;8934;51.194;17.150;2023-06-14T03:01:29;7.70;99.90
17632;DHT22;8934;51.194;17.150;2023-06-14T03:04:26;7.80;99.90
17632;DHT22;8934;51.194;17.150;2023-06-14T03:07:16;8.00;99.90
17632;DHT22;8934;51.194;17.150;2023-06-14T03:10:09;8.30;99.90
17632;DHT22;8934;51.194;17.150;2023-06-14T03:13:02;8.60;99.90
17632;DHT22;8934;51.194;17.150;2023-06-14T03:15:50;8.70;99.90
17632;DHT22;8934;51.194;17.150;2023-06-14T03:18:39;8.90;99.90
17632;DHT22;8934;51.194;17.150;2023-06-14T03:21:29;9.00;99.90
17632;DHT22;8934;51.194;17.150;2023-06-14T03:24:19;9.10;99.90
17632;DHT22;8934;51.194;17.150;2023-06-14T03:27:07;9.20;99.90
17632;DHT22;8934;51.194;17.150;2023-06-14T03:29:59;9.40;99.90
17632;DHT22;8934;51.194;17.150;2023-06-14T03:32:48;9.40;99.90
17632;DHT22;8934;51.194;17.150;2023-06-14T03:35:37;9.40;99.90
17632;DHT22;8934;51.194;17.150;2023-06-14T03:38:26;9.50;99.90
17632;DHT22;8934;51.194;17.150;2023-06-14T03:41:14;9.40;99.90
17632;DHT22;8934;51.194;17.150;2023-06-14T03:44:03;9.40;99.90
17632;DHT22;8934;51.194;17.150;2023-06-14T03:46:52;9.40;99.90
17632;DHT22;8934;51.194;17.150;2023-06-14T03:49:40;9.40;99.90
17632;DHT22;8934;51.194;17.150;2023-06-14T03:52:29;9.30;99.90
17632;DHT22;8934;51.194;17.150;2023-06-14T03:55:18;9.30;99.90
17632;DHT22;8934;51.194;17.150;2023-06-14T03:58:09;9.30;99.90
17632;DHT22;8934;51.194;17.150;2023-06-14T04:00:57;9.30;99.90
17632;DHT22;8934;51.194;17.150;2023-06-14T04:03:45;9.30;99.90
17632;DHT22;8934;51.194;17.150;2023-06-14T04:06:33;9.40;99.90
17632;DHT22;8934;51.194;17.150;2023-06-14T04:09:24;9.50;99.90
17632;DHT22;8934;51.194;17.150;2023-06-14T04:12:13;9.70;99.90
17632;DHT22;8934;51.194;17.150;2023-06-14T04:15:01;9.90;99.90
17632;DHT22;8934;51.194;17.150;2023-06-14T04:18:04;10.10;99.90
17632;DHT22;8934;51.194;17.150;2023-06-14T04:20:53;10.50;99.90
17632;DHT22;8934;51.194;17.150;2023-06-14T04:23:43;10.80;99.90
17632;DHT22;8934;51.194;17.150;2023-06-14T04:26:33;11.10;99.90
17632;DHT22;8934;51.194;17.150;2023-06-14T04:29:22;11.50;99.90
17632;DHT22;8934;51.194;17.150;2023-06-14T04:32:17;11.80;99.90
17632;DHT22;8934;51.194;17.150;2023-06-14T04:35:07;12.10;99.90
17632;DHT22;8934;51.194;17.150;2023-06-14T04:37:57;12.30;99.90
17632;DHT22;8934;51.194;17.150;2023-06-14T04:40:46;12.50;99.90
17632;DHT22;8934;51.194;17.150;2023-06-14T04:43:36;12.70;99.90
17632;DHT22;8934;51.194;17.150;2023-06-14T04:46:27;12.80;99.90
17632;DHT22;8934;51.194;17.150;2023-06-14T04:49:15;13.00;99.90
17632;DHT22;8934;51.194;17.150;2023-06-14T04:52:04;13.10;99.90
17632;DHT22;8934;51.194;17.150;2023-06-14T04:54:55;13.20;99.90
17632;DHT22;8934;51.194;17.150;2023-06-14T04:57:43;13.30;99.90
17632;DHT22;8934;51.194;17.150;2023-06-14T05:00:32;13.30;99.90
17632;DHT22;8934;51.194;17.150;2023-06-14T05:03:21;13.40;99.90
17632;DHT22;8934;51.194;17.150;2023-06-14T05:06:10;13.50;99.90
17632;DHT22;8934;51.194;17.150;2023-06-14T05:08:59;13.70;99.90
17632;DHT22;8934;51.194;17.150;2023-06-14T05:11:47;13.70;99.90
17632;DHT22;8934;51.194;17.150;2023-06-14T05:14:36;13.80;99.90
17632;DHT22;8934;51.194;17.150;2023-06-14T05:17:25;13.80;99.90
17632;DHT22;8934;51.194;17.150;2023-06-14T05:20:15;13.80;99.90
17632;DHT22;8934;51.194;17.150;2023-06-14T05:23:03;13.80;99.90
17632;DHT22;8934;51.194;17.150;2023-06-14T05:25:51;13.70;99.90
17632;DHT22;8934;51.194;17.150;2023-06-14T05:28:39;13.70;99.90
17632;DHT22;8934;51.194;17.150;2023-06-14T05:31:27;13.60;99.90
17632;DHT22;8934;51.194;17.150;2023-06-14T05:34:15;13.60;99.90
17632;DHT22;8934;51.194;17.150;2023-06-14T05:37:04;13.60;99.90
17632;DHT22;8934;51.194;17.150;2023-06-14T05:39:52;13.70;99.90
17632;DHT22;8934;51.194;17.150;2023-06-14T05:42:40;13.80;99.90
17632;DHT22;8934;51.194;17.150;2023-06-14T05:45:27;13.90;99.90
17632;DHT22;8934;51.194;17.150;2023-06-14T05:48:15;14.00;99.90
17632;DHT22;8934;51.194;17.150;2023-06-14T05:51:03;14.10;99.90
17632;DHT22;8934;51.194;17.150;2023-06-14T05:53:52;14.20;99.90
17632;DHT22;8934;51.194;17.150;2023-06-14T05:56:40;14.40;99.90
17632;DHT22;8934;51.194;17.150;2023-06-14T05:59:28;14.60;99.90
17632;DHT22;8934;51.194;17.150;2023-06-14T06:02:16;14.70;99.90
17632;DHT22;8934;51.194;17.150;2023-06-14T06:05:04;14.90;99.90
17632;DHT22;8934;51.194;17.150;2023-06-14T06:07:53;15.00;99.90
17632;DHT22;8934;51.194;17.150;2023-06-14T06:10:42;15.20;99.90
17632;DHT22;8934;51.194;17.150;2023-06-14T06:13:30;15.40;99.90
17632;DHT22;8934;51.194;17.150;2023-06-14T06:16:17;15.60;99.90
17632;DHT22;8934;51.194;17.150;2023-06-14T06:19:05;15.70;99.90
17632;DHT22;8934;51.194;17.150;2023-06-14T06:21:53;15.70;99.90
17632;DHT22;8934;51.194;17.150;2023-06-14T06:24:41;15.80;99.90
17632;DHT22;8934;51.194;17.150;2023-06-14T06:27:32;15.80;99.90
17632;DHT22;8934;51.194;17.150;2023-06-14T06:30:20;15.90;99.90
17632;DHT22;8934;51.194;17.150;2023-06-14T06:33:07;15.90;99.90
17632;DHT22;8934;51.194;17.150;2023-06-14T06:35:55;15.80;99.90
17632;DHT22;8934;51.194;17.150;2023-06-14T06:38:42;15.90;99.90
17632;DHT22;8934;51.194;17.150;2023-06-14T06:41:30;15.90;99.90
17632;DHT22;8934;51.194;17.150;2023-06-14T06:44:20;15.90;99.90
17632;DHT22;8934;51.194;17.150;2023-06-14T06:47:09;15.90;99.90
17632;DHT22;8934;51.194;17.150;2023-06-14T06:49:57;16.00;99.90
17632;DHT22;8934;51.194;17.150;2023-06-14T06:52:45;16.30;99.90
17632;DHT22;8934;51.194;17.150;2023-06-14T06:55:32;16.40;99.90
17632;DHT22;8934;51.194;17.150;2023-06-14T06:58:20;16.50;99.90
17632;DHT22;8934;51.194;17.150;2023-06-14T07:01:09;16.40;99.90
17632;DHT22;8934;51.194;17.150;2023-06-14T07:03:57;16.30;99.90
17632;DHT22;8934;51.194;17.150;2023-06-14T07:06:46;16.20;99.90
17632;DHT22;8934;51.194;17.150;2023-06-14T07:09:34;16.20;99.90
17632;DHT22;8934;51.194;17.150;2023-06-14T07:12:22;16.20;99.90
17632;DHT22;8934;51.194;17.150;2023-06-14T07:15:10;16.20;99.90
17632;DHT22;8934;51.194;17.150;2023-06-14T07:17:59;16.40;99.90
17632;DHT22;8934;51.194;17.150;2023-06-14T07:20:47;16.50;99.90
17632;DHT22;8934;51.194;17.150;2023-06-14T07:23:35;16.80;99.90
17632;DHT22;8934;51.194;17.150;2023-06-14T07:26:23;17.10;99.90
17632;DHT22;8934;51.194;17.150;2023-06-14T07:29:11;17.40;99.90
17632;DHT22;8934;51.194;17.150;2023-06-14T07:31:58;17.80;99.90
17632;DHT22;8934;51.194;17.150;2023-06-14T07:34:47;18.10;99.90
17632;DHT22;8934;51.194;17.150;2023-06-14T07:37:35;18.20;99.90
17632;DHT22;8934;51.194;17.150;2023-06-14T07:40:23;18.40;99.90
17632;DHT22;8934;51.194;17.150;2023-06-14T07:43:11;18.20;99.90
17632;DHT22;8934;51.194;17.150;2023-06-14T07:45:59;18.20;99.90
17632;DHT22;8934;51.194;17.150;2023-06-14T07:48:53;18.10;99.90
17632;DHT22;8934;51.194;17.150;2023-06-14T07:51:42;18.10;99.90
17632;DHT22;8934;51.194;17.150;2023-06-14T07:54:32;18.20;99.90
17632;DHT22;8934;51.194;17.150;2023-06-14T07:57:19;18.30;99.90
17632;DHT22;8934;51.194;17.150;2023-06-14T08:00:08;18.50;99.90
17632;DHT22;8934;51.194;17.150;2023-06-14T08:02:59;19.00;99.90
17632;DHT22;8934;51.194;17.150;2023-06-14T08:05:47;19.40;99.90
17632;DHT22;8934;51.194;17.150;2023-06-14T08:08:36;19.40;99.90
17632;DHT22;8934;51.194;17.150;2023-06-14T08:11:24;19.30;99.90
17632;DHT22;8934;51.194;17.150;2023-06-14T08:14:11;19.20;99.90
17632;DHT22;8934;51.194;17.150;2023-06-14T08:17:00;19.00;99.90
17632;DHT22;8934;51.194;17.150;2023-06-14T08:19:47;19.00;99.90
17632;DHT22;8934;51.194;17.150;2023-06-14T08:22:35;18.90;99.90
17632;DHT22;8934;51.194;17.150;2023-06-14T08:25:25;18.80;99.90
17632;DHT22;8934;51.194;17.150;2023-06-14T08:28:13;18.80;99.90
17632;DHT22;8934;51.194;17.150;2023-06-14T08:31:01;19.00;99.90
17632;DHT22;8934;51.194;17.150;2023-06-14T08:33:49;19.40;99.90
17632;DHT22;8934;51.194;17.150;2023-06-14T08:36:37;19.70;99.90
17632;DHT22;8934;51.194;17.150;2023-06-14T08:39:24;20.00;99.90
17632;DHT22;8934;51.194;17.150;2023-06-14T08:42:14;20.10;99.90
17632;DHT22;8934;51.194;17.150;2023-06-14T08:45:16;20.30;99.90
17632;DHT22;8934;51.194;17.150;2023-06-14T08:48:05;20.70;99.90
17632;DHT22;8934;51.194;17.150;2023-06-14T08:50:54;20.60;99.90
17632;DHT22;8934;51.194;17.150;2023-06-14T08:53:52;20.30;99.90
17632;DHT22;8934;51.194;17.150;2023-06-14T08:56:41;20.20;99.90
17632;DHT22;8934;51.194;17.150;2023-06-14T08:59:31;19.90;99.90
17632;DHT22;8934;51.194;17.150;2023-06-14T09:02:25;19.60;99.90
17632;DHT22;8934;51.194;17.150;2023-06-14T09:05:13;19.40;99.90
17632;DHT22;8934;51.194;17.150;2023-06-14T09:08:00;19.30;99.90
17632;DHT22;8934;51.194;17.150;2023-06-14T09:10:52;19.20;99.90
17632;DHT22;8934;51.194;17.150;2023-06-14T09:13:41;19.10;99.90
17632;DHT22;8934;51.194;17.150;2023-06-14T09:16:32;19.00;99.90
17632;DHT22;8934;51.194;17.150;2023-06-14T09:19:22;19.00;99.90
17632;DHT22;8934;51.194;17.150;2023-06-14T09:22:11;18.80;99.90
17632;DHT22;8934;51.194;17.150;2023-06-14T09:25:00;18.60;99.90
17632;DHT22;8934;51.194;17.150;2023-06-14T09:27:47;18.50;99.90
17632;DHT22;8934;51.194;17.150;2023-06-14T09:30:36;18.50;99.90
17632;DHT22;8934;51.194;17.150;2023-06-14T09:33:25;18.40;99.90
17632;DHT22;8934;51.194;17.150;2023-06-14T09:36:15;18.40;99.90
17632;DHT22;8934;51.194;17.150;2023-06-14T09:39:03;18.50;99.90
17632;DHT22;8934;51.194;17.150;2023-06-14T09:41:52;18.60;99.90
17632;DHT22;8934;51.194;17.150;2023-06-14T09:44:39;18.90;99.90
17632;DHT22;8934;51.194;17.150;2023-06-14T09:47:27;19.40;99.90
17632;DHT22;8934;51.194;17.150;2023-06-14T09:50:17;20.00;99.90
17632;DHT22;8934;51.194;17.150;2023-06-14T09:53:07;20.50;99.90
17632;DHT22;8934;51.194;17.150;2023-06-14T09:55:57;20.60;99.90
17632;DHT22;8934;51.194;17.150;2023-06-14T09:58:45;20.60;99.90
17632;DHT22;8934;51.194;17.150;2023-06-14T10:01:52;20.60;99.90
17632;DHT22;8934;51.194;17.150;2023-06-14T10:04:46;20.60;99.90
17632;DHT22;8934;51.194;17.150;2023-06-14T10:07:41;20.30;99.90
17632;DHT22;8934;51.194;17.150;2023-06-14T10:10:30;20.30;99.90
17632;DHT22;8934;51.194;17.150;2023-06-14T10:13:18;20.40;99.90
17632;DHT22;8934;51.194;17.150;2023-06-14T10:16:12;20.60;99.90
17632;DHT22;8934;51.194;17.150;2023-06-14T10:19:06;21.00;99.90
17632;DHT22;8934;51.194;17.150;2023-06-14T10:21:58;21.30;99.90
17632;DHT22;8934;51.194;17.150;2023-06-14T10:24:48;21.20;99.90
17632;DHT22;8934;51.194;17.150;2023-06-14T10:27:36;21.10;99.90
17632;DHT22;8934;51.194;17.150;2023-06-14T10:30:25;21.20;99.90
17632;DHT22;8934;51.194;17.150;2023-06-14T10:33:15;21.30;99.90
17632;DHT22;8934;51.194;17.150;2023-06-14T10:36:10;21.50;99.90
17632;DHT22;8934;51.194;17.150;2023-06-14T10:39:15;21.50;99.90
17632;DHT22;8934;51.194;17.150;2023-06-14T10:42:06;21.60;99.90
17632;DHT22;8934;51.194;17.150;2023-06-14T10:44:54;21.80;99.90
17632;DHT22;8934;51.194;17.150;2023-06-14T10:47:42;22.20;99.90
17632;DHT22;8934;51.194;17.150;2023-06-14T10:50:30;22.50;99.90
17632;DHT22;8934;51.194;17.150;2023-06-14T10:53:22;22.70;99.90
17632;DHT22;8934;51.194;17.150;2023-06-14T10:56:23;23.00;99.90
17632;DHT22;8934;51.194;17.150;2023-06-14T10:59:14;23.20;99.90
17632;DHT22;8934;51.194;17.150;2023-06-14T11:02:27;23.30;99.90
17632;DHT22;8934;51.194;17.150;2023-06-14T11:05:24;23.40;99.90
17632;DHT22;8934;51.194;17.150;2023-06-14T11:08:49;23.10;99.90
17632;DHT22;8934;51.194;17.150;2023-06-14T11:11:42;22.70;99.90
17632;DHT22;8934;51.194;17.150;2023-06-14T11:14:31;22.60;99.90
17632;DHT22;8934;51.194;17.150;2023-06-14T11:17:19;22.20;99.90
17632;DHT22;8934;51.194;17.150;2023-06-14T11:20:08;21.90;99.90
17632;DHT22;8934;51.194;17.150;2023-06-14T11:22:55;21.60;99.90
17632;DHT22;8934;51.194;17.150;2023-06-14T11:25:48;21.40;99.90
17632;DHT22;8934;51.194;17.150;2023-06-14T11:28:37;21.40;99.90
17632;DHT22;8934;51.194;17.150;2023-06-14T11:31:27;21.40;99.90
17632;DHT22;8934;51.194;17.150;2023-06-14T11:34:16;21.30;99.90
17632;DHT22;8934;51.194;17.150;2023-06-14T11:37:05;21.10;99.90
17632;DHT22;8934;51.194;17.150;2023-06-14T11:39:56;20.90;99.90
17632;DHT22;8934;51.194;17.150;2023-06-14T11:42:44;20.50;99.90
17632;DHT22;8934;51.194;17.150;2023-06-14T11:45:31;20.30;99.90
17632;DHT22;8934;51.194;17.150;2023-06-14T11:48:20;20.10;99.90
17632;DHT22;8934;51.194;17.150;2023-06-14T11:51:08;19.70;99.90
17632;DHT22;8934;51.194;17.150;2023-06-14T11:53:56;19.40;99.90
17632;DHT22;8934;51.194;17.150;2023-06-14T11:56:44;19.10;99.90
17632;DHT22;8934;51.194;17.150;2023-06-14T11:59:32;18.80;99.90
17632;DHT22;8934;51.194;17.150;2023-06-14T12:02:21;18.60;99.90
17632;DHT22;8934;51.194;17.150;2023-06-14T12:05:11;18.40;99.90
17632;DHT22;8934;51.194;17.150;2023-06-14T12:08:01;18.10;99.90
17632;DHT22;8934;51.194;17.150;2023-06-14T12:10:51;18.00;99.90
17632;DHT22;8934;51.194;17.150;2023-06-14T12:13:39;18.00;99.90
17632;DHT22;8934;51.194;17.150;2023-06-14T12:16:31;17.90;99.90
17632;DHT22;8934;51.194;17.150;2023-06-14T12:19:19;17.90;99.90
17632;DHT22;8934;51.194;17.150;2023-06-14T12:22:11;18.00;99.90
17632;DHT22;8934;51.194;17.150;2023-06-14T12:24:58;18.10;99.90
17632;DHT22;8934;51.194;17.150;2023-06-14T12:27:47;18.20;99.90
17632;DHT22;8934;51.194;17.150;2023-06-14T12:30:35;18.30;99.90
17632;DHT22;8934;51.194;17.150;2023-06-14T12:33:23;18.30;99.90
17632;DHT22;8934;51.194;17.150;2023-06-14T12:36:11;18.30;99.90
17632;DHT22;8934;51.194;17.150;2023-06-14T12:39:00;18.30;99.90
17632;DHT22;8934;51.194;17.150;2023-06-14T12:41:48;18.30;99.90
17632;DHT22;8934;51.194;17.150;2023-06-14T12:44:36;18.30;99.90
17632;DHT22;8934;51.194;17.150;2023-06-14T12:47:27;18.20;99.90
17632;DHT22;8934;51.194;17.150;2023-06-14T12:50:14;18.10;99.90
17632;DHT22;8934;51.194;17.150;2023-06-14T12:53:03;18.00;99.90
17632;DHT22;8934;51.194;17.150;2023-06-14T12:55:52;18.00;99.90
17632;DHT22;8934;51.194;17.150;2023-06-14T12:58:40;18.00;99.90
17632;DHT22;8934;51.194;17.150;2023-06-14T13:01:27;18.00;99.90
17632;DHT22;8934;51.194;17.150;2023-06-14T13:04:15;18.00;99.90
17632;DHT22;8934;51.194;17.150;2023-06-14T13:07:03;18.00;99.90
17632;DHT22;8934;51.194;17.150;2023-06-14T13:09:50;18.00;99.90
17632;DHT22;8934;51.194;17.150;2023-06-14T13:12:39;18.10;99.90
17632;DHT22;8934;51.194;17.150;2023-06-14T13:15:27;18.10;99.90
17632;DHT22;8934;51.194;17.150;2023-06-14T13:18:15;18.20;99.90
17632;DHT22;8934;51.194;17.150;2023-06-14T13:21:03;18.30;99.90
17632;DHT22;8934;51.194;17.150;2023-06-14T13:23:51;18.40;99.90
17632;DHT22;8934;51.194;17.150;2023-06-14T13:26:40;18.50;99.90
17632;DHT22;8934;51.194;17.150;2023-06-14T13:29:29;18.70;99.90
17632;DHT22;8934;51.194;17.150;2023-06-14T13:32:17;18.90;99.90
17632;DHT22;8934;51.194;17.150;2023-06-14T13:35:05;19.10;99.90
17632;DHT22;8934;51.194;17.150;2023-06-14T13:37:53;19.20;99.90
17632;DHT22;8934;51.194;17.150;2023-06-14T13:40:41;19.20;99.90
17632;DHT22;8934;51.194;17.150;2023-06-14T13:43:29;19.30;99.90
17632;DHT22;8934;51.194;17.150;2023-06-14T13:46:18;19.20;99.90
17632;DHT22;8934;51.194;17.150;2023-06-14T13:49:06;19.00;99.90
17632;DHT22;8934;51.194;17.150;2023-06-14T13:51:54;18.90;99.90
17632;DHT22;8934;51.194;17.150;2023-06-14T13:54:42;19.00;99.90
17632;DHT22;8934;51.194;17.150;2023-06-14T13:57:34;19.10;99.90
17632;DHT22;8934;51.194;17.150;2023-06-14T14:00:22;19.10;99.90
17632;DHT22;8934;51.194;17.150;2023-06-14T14:03:12;19.10;99.90
17632;DHT22;8934;51.194;17.150;2023-06-14T14:06:00;19.00;99.90
17632;DHT22;8934;51.194;17.150;2023-06-14T14:08:51;19.00;99.90
17632;DHT22;8934;51.194;17.150;2023-06-14T14:11:40;18.90;99.90
17632;DHT22;8934;51.194;17.150;2023-06-14T14:14:29;18.70;99.90
17632;DHT22;8934;51.194;17.150;2023-06-14T14:17:18;18.50;99.90
17632;DHT22;8934;51.194;17.150;2023-06-14T14:20:11;18.40;99.90
17632;DHT22;8934;51.194;17.150;2023-06-14T14:23:02;18.40;99.90
17632;DHT22;8934;51.194;17.150;2023-06-14T14:25:50;18.30;99.90
17632;DHT22;8934;51.194;17.150;2023-06-14T14:28:38;18.30;99.90
17632;DHT22;8934;51.194;17.150;2023-06-14T14:31:26;18.40;99.90
17632;DHT22;8934;51.194;17.150;2023-06-14T14:34:15;18.40;99.90
17632;DHT22;8934;51.194;17.150;2023-06-14T14:37:04;18.50;99.90
17632;DHT22;8934;51.194;17.150;2023-06-14T14:39:52;18.70;99.90
17632;DHT22;8934;51.194;17.150;2023-06-14T14:42:40;18.70;99.90
17632;DHT22;8934;51.194;17.150;2023-06-14T14:45:27;18.80;99.90
17632;DHT22;8934;51.194;17.150;2023-06-14T14:48:15;18.90;99.90
17632;DHT22;8934;51.194;17.150;2023-06-14T14:51:03;19.00;99.90
17632;DHT22;8934;51.194;17.150;2023-06-14T14:53:55;19.00;99.90
17632;DHT22;8934;51.194;17.150;2023-06-14T14:56:43;19.00;99.90
17632;DHT22;8934;51.194;17.150;2023-06-14T14:59:31;19.00;99.90
17632;DHT22;8934;51.194;17.150;2023-06-14T15:02:22;19.00;99.90
17632;DHT22;8934;51.194;17.150;2023-06-14T15:05:12;19.10;99.90
17632;DHT22;8934;51.194;17.150;2023-06-14T15:07:59;19.30;99.90
17632;DHT22;8934;51.194;17.150;2023-06-14T15:10:49;19.40;99.90
17632;DHT22;8934;51.194;17.150;2023-06-14T15:13:37;19.60;99.90
17632;DHT22;8934;51.194;17.150;2023-06-14T15:16:25;19.80;99.90
17632;DHT22;8934;51.194;17.150;2023-06-14T15:19:12;20.10;99.90
17632;DHT22;8934;51.194;17.150;2023-06-14T15:22:00;20.40;99.90
17632;DHT22;8934;51.194;17.150;2023-06-14T15:24:49;20.70;99.90
17632;DHT22;8934;51.194;17.150;2023-06-14T15:27:38;20.90;99.90
17632;DHT22;8934;51.194;17.150;2023-06-14T15:30:25;21.00;99.90
17632;DHT22;8934;51.194;17.150;2023-06-14T15:33:13;21.30;99.90
17632;DHT22;8934;51.194;17.150;2023-06-14T15:36:01;21.70;99.90
17632;DHT22;8934;51.194;17.150;2023-06-14T15:38:49;21.80;99.90
17632;DHT22;8934;51.194;17.150;2023-06-14T15:41:36;21.80;99.90
17632;DHT22;8934;51.194;17.150;2023-06-14T15:44:25;21.70;99.90
17632;DHT22;8934;51.194;17.150;2023-06-14T15:47:13;21.70;99.90
17632;DHT22;8934;51.194;17.150;2023-06-14T15:50:01;21.80;99.90
17632;DHT22;8934;51.194;17.150;2023-06-14T15:52:51;21.90;99.90
17632;DHT22;8934;51.194;17.150;2023-06-14T15:55:38;22.30;99.90
17632;DHT22;8934;51.194;17.150;2023-06-14T15:58:26;22.70;99.90
17632;DHT22;8934;51.194;17.150;2023-06-14T16:01:15;22.60;99.90
17632;DHT22;8934;51.194;17.150;2023-06-14T16:04:03;22.30;99.90
17632;DHT22;8934;51.194;17.150;2023-06-14T16:06:51;21.90;99.90
17632;DHT22;8934;51.194;17.150;2023-06-14T16:09:39;21.60;99.90
17632;DHT22;8934;51.194;17.150;2023-06-14T16:12:26;21.20;99.90
17632;DHT22;8934;51.194;17.150;2023-06-14T16:15:13;20.90;99.90
17632;DHT22;8934;51.194;17.150;2023-06-14T16:18:03;20.60;99.90
17632;DHT22;8934;51.194;17.150;2023-06-14T16:20:51;20.50;99.90
17632;DHT22;8934;51.194;17.150;2023-06-14T16:23:41;20.20;99.90
17632;DHT22;8934;51.194;17.150;2023-06-14T16:26:29;20.10;99.90
17632;DHT22;8934;51.194;17.150;2023-06-14T16:29:17;20.10;99.90
17632;DHT22;8934;51.194;17.150;2023-06-14T16:32:05;20.10;99.90
17632;DHT22;8934;51.194;17.150;2023-06-14T16:34:54;20.10;99.90
17632;DHT22;8934;51.194;17.150;2023-06-14T16:37:42;20.00;99.90
17632;DHT22;8934;51.194;17.150;2023-06-14T16:40:29;19.90;99.90
17632;DHT22;8934;51.194;17.150;2023-06-14T16:43:16;19.50;99.90
17632;DHT22;8934;51.194;17.150;2023-06-14T16:46:04;19.20;99.90
17632;DHT22;8934;51.194;17.150;2023-06-14T16:48:54;18.90;99.90
17632;DHT22;8934;51.194;17.150;2023-06-14T16:51:43;18.60;99.90
17632;DHT22;8934;51.194;17.150;2023-06-14T16:54:31;18.30;99.90
17632;DHT22;8934;51.194;17.150;2023-06-14T16:57:18;18.10;99.90
17632;DHT22;8934;51.194;17.150;2023-06-14T17:00:07;18.00;99.90
17632;DHT22;8934;51.194;17.150;2023-06-14T17:02:55;17.90;99.90
17632;DHT22;8934;51.194;17.150;2023-06-14T17:05:54;17.80;99.90
17632;DHT22;8934;51.194;17.150;2023-06-14T17:08:43;17.70;99.90
17632;DHT22;8934;51.194;17.150;2023-06-14T17:11:31;17.70;99.90
17632;DHT22;8934;51.194;17.150;2023-06-14T17:14:18;17.70;99.90
17632;DHT22;8934;51.194;17.150;2023-06-14T17:17:06;17.80;99.90
17632;DHT22;8934;51.194;17.150;2023-06-14T17:19:53;17.80;99.90
17632;DHT22;8934;51.194;17.150;2023-06-14T17:22:41;17.80;99.90
17632;DHT22;8934;51.194;17.150;2023-06-14T17:25:29;17.80;99.90
17632;DHT22;8934;51.194;17.150;2023-06-14T17:28:17;17.70;99.90
17632;DHT22;8934;51.194;17.150;2023-06-14T17:31:05;17.70;99.90
17632;DHT22;8934;51.194;17.150;2023-06-14T17:33:53;17.70;99.90
17632;DHT22;8934;51.194;17.150;2023-06-14T17:36:40;17.60;99.90
17632;DHT22;8934;51.194;17.150;2023-06-14T17:39:30;17.50;99.90
17632;DHT22;8934;51.194;17.150;2023-06-14T17:42:19;17.40;99.90
17632;DHT22;8934;51.194;17.150;2023-06-14T17:45:09;17.40;99.90
17632;DHT22;8934;51.194;17.150;2023-06-14T17:47:56;17.40;99.90
17632;DHT22;8934;51.194;17.150;2023-06-14T17:50:44;17.30;99.90
17632;DHT22;8934;51.194;17.150;2023-06-14T17:53:32;17.30;99.90